Time;durP1;ratioP1;P1;durP2;ratioP2;P2;SDS_P1;SDS_P2;PMS_P1;PMS_P2;Temp;Humidity;BMP_temperature;BMP_pressure;BME280_temperature;BME280_humidity;BME280_pressure;Samples;Min_cycle;Max_cycle;Signal;HPM_P1;HPM_P2
2023/01/04 00:00:04;;;;;;;16.90;7.82;;;;;;;9.31;59.69;101072.88;4336869;33;20104;-86
2023/01/04 00:02:30;;;;;;;17.92;8.25;;;;;;;8.99;59.68;101066.94;4320909;33;20092;-88
2023/01/04 00:04:55;;;;;;;12.52;7.28;;;;;;;9.06;59.68;101084.25;4326340;33;20130;-87
2023/01/04 00:07:20;;;;;;;11.98;6.82;;;;;;;9.16;59.68;101079.00;4330799;33;20087;-87
2023/01/04 00:09:46;;;;;;;12.95;7.07;;;;;;;9.25;59.69;101078.09;4332978;33;20154;-87
2023/01/04 00:12:11;;;;;;;13.43;7.43;;;;;;;9.11;59.68;101085.94;4332212;33;20088;-88
2023/01/04 00:14:37;;;;;;;13.30;6.50;;;;;;;9.18;59.68;101079.00;4321470;33;20109;-88
2023/01/04 00:17:02;;;;;;;11.32;5.78;;;;;;;9.14;59.69;101082.47;4331751;33;20099;-88
2023/01/04 00:19:28;;;;;;;10.90;5.50;;;;;;;9.15;59.69;101085.06;4331528;33;20127;-88
2023/01/04 00:21:53;;;;;;;12.63;6.90;;;;;;;8.97;59.67;101092.06;4320960;33;20115;-88
2023/01/04 00:24:18;;;;;;;13.57;6.65;;;;;;;8.78;59.66;101086.97;4334351;33;20116;-87
2023/01/04 00:26:44;;;;;;;10.68;5.95;;;;;;;8.71;59.66;101085.25;4334021;33;20123;-87
2023/01/04 00:29:10;;;;;;;13.45;6.80;;;;;;;8.74;59.67;101077.44;4337196;33;20509;-85
2023/01/04 00:31:36;;;;;;;18.95;7.07;;;;;;;8.58;59.65;101080.97;4333554;33;20096;-86
2023/01/04 00:34:02;;;;;;;14.27;7.55;;;;;;;8.56;59.65;101082.69;4321548;33;20095;-87
2023/01/04 00:36:28;;;;;;;14.68;7.40;;;;;;;8.49;59.65;101086.16;4321975;33;20500;-86
2023/01/04 00:39:06;;;;;;;14.50;7.47;;;;;;;8.47;59.65;101080.97;4334367;33;20169;-87
2023/01/04 00:41:39;;;;;;;15.63;8.13;;;;;;;8.45;59.65;101076.66;4346441;33;20129;-87
2023/01/04 00:44:05;;;;;;;15.77;7.45;;;;;;;8.23;59.64;101086.16;4345990;32;20166;-86
2023/01/04 00:46:31;;;;;;;19.35;8.07;;;;;;;8.31;59.64;101087.03;4340379;33;20457;-87
2023/01/04 00:48:56;;;;;;;13.45;7.25;;;;;;;8.40;59.64;101081.00;4326761;32;20131;-87
2023/01/04 00:51:22;;;;;;;13.27;7.43;;;;;;;8.22;59.63;101085.31;4333871;33;20442;-87
2023/01/04 00:53:47;;;;;;;13.55;7.35;;;;;;;8.14;59.63;101089.66;4335722;33;20170;-87
2023/01/04 00:56:12;;;;;;;10.10;6.32;;;;;;;8.25;59.63;101087.03;4333751;33;20104;-87
2023/01/04 00:58:38;;;;;;;14.70;6.18;;;;;;;8.17;59.63;101088.78;4336398;33;20492;-88
2023/01/04 01:01:06;;;;;;;13.90;7.22;;;;;;;8.14;59.64;101092.25;4336404;33;20437;-87
2023/01/04 01:03:32;;;;;;;16.75;6.45;;;;;;;8.26;59.64;101089.62;4326565;33;20159;-88
2023/01/04 01:06:01;;;;;;;15.52;7.30;;;;;;;8.01;59.63;101103.47;4326578;33;20129;-87
2023/01/04 01:08:27;;;;;;;14.55;7.20;;;;;;;8.08;59.63;101092.25;4334737;33;20189;-87
2023/01/04 01:10:53;;;;;;;14.68;6.80;;;;;;;8.13;59.63;101100.88;4321785;33;20516;-88
2023/01/04 01:13:19;;;;;;;15.43;7.12;;;;;;;8.24;59.63;101103.47;4331031;32;20167;-88
2023/01/04 01:15:44;;;;;;;13.70;6.05;;;;;;;7.92;59.62;101104.34;4336203;33;20064;-87
2023/01/04 01:18:10;;;;;;;15.45;6.68;;;;;;;8.00;59.63;101099.16;4347211;33;20227;-86
2023/01/04 01:20:40;;;;;;;13.85;7.10;;;;;;;8.05;59.62;101094.84;4339924;33;20107;-87
2023/01/04 01:23:06;;;;;;;11.27;6.37;;;;;;;7.91;59.61;101092.25;4323405;33;20092;-88
2023/01/04 01:25:34;;;;;;;12.60;6.75;;;;;;;7.95;59.62;101093.97;4333954;33;20473;-88
2023/01/04 01:28:00;;;;;;;13.80;6.82;;;;;;;7.79;59.61;101093.94;4321957;33;20171;-87
2023/01/04 01:30:25;;;;;;;14.55;6.43;;;;;;;7.88;59.62;101101.75;4316064;33;20135;-88
2023/01/04 01:32:51;;;;;;;15.10;7.45;;;;;;;7.80;59.61;101096.53;4335776;32;20380;-85
2023/01/04 01:35:16;;;;;;;15.18;6.68;;;;;;;7.62;59.61;101100.00;4333470;33;20163;-87
2023/01/04 01:37:41;;;;;;;13.38;6.62;;;;;;;7.65;59.60;101102.59;4321870;33;20144;-87
2023/01/04 01:40:07;;;;;;;15.45;7.30;;;;;;;7.52;59.59;101092.19;4314217;33;20139;-88
2023/01/04 01:42:33;;;;;;;19.77;7.00;;;;;;;7.52;59.59;101092.19;4321839;33;20445;-88
2023/01/04 01:45:09;;;;;;;14.38;7.18;;;;;;;7.67;59.60;101082.72;4333442;33;20139;-88
2023/01/04 01:47:42;;;;;;;15.70;7.00;;;;;;;7.56;59.60;101086.16;4321557;33;20152;-87
2023/01/04 01:50:23;;;;;;;12.20;6.70;;;;;;;7.54;59.59;101083.56;4348486;33;20157;-87
2023/01/04 01:52:49;;;;;;;11.50;6.22;;;;;;;7.56;59.60;101088.72;4330197;33;20092;-88
2023/01/04 01:55:15;;;;;;;13.20;6.75;;;;;;;7.44;59.59;101087.00;4318968;33;20175;-87
2023/01/04 01:57:41;;;;;;;13.90;6.45;;;;;;;7.42;59.59;101085.28;4315592;33;20103;-88
2023/01/04 02:00:09;;;;;;;12.68;6.68;;;;;;;7.30;59.58;101092.13;4323509;33;20154;-87
2023/01/04 02:02:34;;;;;;;12.82;6.45;;;;;;;7.26;59.58;101092.13;4333397;33;20130;-87
2023/01/04 02:05:01;;;;;;;13.62;6.60;;;;;;;7.27;59.58;101093.84;4335263;33;20369;-87
2023/01/04 02:07:26;;;;;;;12.82;6.78;;;;;;;7.21;59.58;101092.13;4333740;33;20072;-88
2023/01/04 02:09:51;;;;;;;11.00;6.20;;;;;;;7.27;59.58;101094.72;4332420;33;20104;-87
2023/01/04 02:12:17;;;;;;;12.55;6.18;;;;;;;7.23;59.58;101092.13;4335890;33;20446;-87
2023/01/04 02:14:43;;;;;;;12.07;6.32;;;;;;;7.31;59.58;101095.59;4333505;33;20916;-88
2023/01/04 02:17:46;;;;;;;14.25;6.57;;;;;;;7.32;59.58;101097.31;4335967;33;20103;-87
2023/01/04 02:20:27;;;;;;;13.88;6.55;;;;;;;7.18;59.58;101102.47;4338379;32;20130;-87
2023/01/04 02:23:15;;;;;;;17.55;7.37;;;;;;;7.28;59.58;101091.28;4326511;33;20119;-88
2023/01/04 02:26:01;;;;;;;11.38;5.85;;;;;;;7.42;59.59;101091.31;4348217;33;20104;-86
2023/01/04 02:28:58;;;;;;;13.13;6.60;;;;;;;7.33;59.59;101092.16;4334013;32;20111;-87
2023/01/04 02:31:39;;;;;;;12.07;6.50;;;;;;;7.04;59.57;101086.88;4334807;33;20084;-88
2023/01/04 02:34:14;;;;;;;14.95;6.82;;;;;;;7.17;59.57;101080.03;4312219;33;20096;-88
2023/01/04 02:37:01;;;;;;;15.02;6.70;;;;;;;7.12;59.58;101083.47;4325555;33;20492;-88
2023/01/04 02:39:40;;;;;;;12.75;5.87;;;;;;;7.03;59.57;101079.97;4333776;33;20123;-88
2023/01/04 02:42:14;;;;;;;13.85;6.05;;;;;;;7.09;59.58;101085.16;4324040;33;20104;-88
2023/01/04 02:45:09;;;;;;;10.32;5.80;;;;;;;7.07;59.56;101086.03;4324010;33;20106;-87
2023/01/04 02:50:31;;;;;;;12.10;6.90;;;;;;;7.16;59.57;101098.16;4323570;33;20126;-87
2023/01/04 02:53:11;;;;;;;15.75;7.57;;;;;;;7.00;59.56;101099.81;4327438;33;20155;-88
2023/01/04 02:56:02;;;;;;;12.52;6.07;;;;;;;7.05;59.57;101087.75;4305019;33;20493;-88
2023/01/04 02:58:44;;;;;;;10.80;5.65;;;;;;;7.17;59.57;101087.78;4328622;33;20120;-88
2023/01/04 03:07:25;;;;;;;13.70;7.03;;;;;;;7.07;59.56;101086.88;4330073;33;20151;-87
2023/01/04 03:09:53;;;;;;;14.07;7.37;;;;;;;6.59;59.55;101086.66;4320720;33;20590;-86
2023/01/04 03:12:30;;;;;;;14.95;7.05;;;;;;;6.93;59.56;101093.75;4320819;33;20108;-88
2023/01/04 03:15:19;;;;;;;11.12;5.90;;;;;;;6.85;59.56;101090.25;4312540;33;20092;-84
2023/01/04 03:17:57;;;;;;;18.42;7.20;;;;;;;6.88;59.56;101095.47;4333203;33;20786;-87
2023/01/04 03:20:24;;;;;;;13.65;6.90;;;;;;;6.78;59.55;101091.94;4321243;33;20076;-88
2023/01/04 03:37:17;;;;;;;15.05;7.82;;;;;;;6.60;59.55;101085.81;4321805;33;20126;-85
2023/01/04 03:48:33;;;;;;;13.68;7.15;;;;;;;6.73;59.56;101097.97;4307762;33;20125;-87
2023/01/04 03:51:20;;;;;;;17.25;8.35;;;;;;;6.71;59.55;101103.12;4319321;33;20171;-86
2023/01/04 03:54:26;;;;;;;11.93;7.03;;;;;;;6.82;59.55;101094.53;4310535;33;20494;-87
2023/01/04 03:56:51;;;;;;;14.73;6.87;;;;;;;6.69;59.55;101101.41;4331184;33;20103;-87
2023/01/04 03:59:17;;;;;;;16.40;7.65;;;;;;;6.67;59.55;101092.75;4319693;33;20109;-86
2023/01/04 04:01:42;;;;;;;14.00;7.22;;;;;;;6.68;59.55;101086.72;4316760;33;21972;-87
2023/01/04 04:09:36;;;;;;;14.05;7.37;;;;;;;6.38;59.53;101079.62;4324412;33;20118;-87
2023/01/04 04:12:01;;;;;;;15.07;7.85;;;;;;;6.37;59.53;101086.53;4305194;33;20109;-87
2023/01/04 04:14:27;;;;;;;14.85;7.82;;;;;;;6.43;59.54;101083.12;4319293;33;20447;-87
2023/01/04 04:16:52;;;;;;;13.23;7.28;;;;;;;6.40;59.53;101089.16;4331490;33;20175;-87
2023/01/04 04:19:17;;;;;;;13.68;7.32;;;;;;;6.35;59.54;101093.41;4320281;33;20369;-87
2023/01/04 04:21:43;;;;;;;16.20;8.80;;;;;;;6.18;59.52;101091.59;4311813;33;20165;-87
2023/01/04 04:24:14;;;;;;;19.35;8.30;;;;;;;6.00;59.51;101095.75;4309958;33;20147;-87
2023/01/04 04:26:40;;;;;;;15.50;7.80;;;;;;;6.01;59.51;101091.44;4309735;33;20119;-87
2023/01/04 04:29:05;;;;;;;14.35;7.78;;;;;;;6.07;59.52;101089.78;4321332;33;20146;-87
2023/01/04 04:31:31;;;;;;;14.40;7.18;;;;;;;6.09;59.52;101094.94;4320083;33;20127;-87
2023/01/04 04:33:56;;;;;;;15.50;7.75;;;;;;;6.01;59.51;101100.06;4321752;33;20170;-87
2023/01/04 04:36:22;;;;;;;16.67;8.15;;;;;;;6.01;59.51;101101.78;4322003;33;20111;-87
2023/01/04 04:38:47;;;;;;;15.43;7.95;;;;;;;6.03;59.51;101103.53;4321481;33;20088;-87
2023/01/04 04:43:57;;;;;;;14.70;7.60;;;;;;;5.91;59.51;101093.06;4323035;33;20484;-87
2023/01/04 04:46:22;;;;;;;18.70;8.18;;;;;;;5.52;59.48;101097.00;4322118;33;20092;-87
2023/01/04 04:48:48;;;;;;;16.48;8.07;;;;;;;5.51;59.48;101099.56;4320944;33;20122;-88
2023/01/04 04:51:13;;;;;;;17.17;7.95;;;;;;;5.62;59.49;101099.66;4301113;33;20138;-88
2023/01/04 04:53:39;;;;;;;16.37;8.30;;;;;;;5.32;59.48;101100.22;4320722;33;20268;-86
2023/01/04 04:56:05;;;;;;;17.37;7.75;;;;;;;5.46;59.48;101103.84;4300299;33;20108;-86
2023/01/04 04:58:31;;;;;;;18.90;8.23;;;;;;;5.21;59.46;101102.69;4321706;33;20095;-88
2023/01/04 05:00:57;;;;;;;14.95;8.05;;;;;;;5.39;59.48;101094.28;4321284;33;20139;-86
2023/01/04 05:03:22;;;;;;;17.42;8.63;;;;;;;5.39;59.48;101089.09;4321470;33;20957;-86
2023/01/04 05:05:48;;;;;;;18.25;8.35;;;;;;;5.26;59.47;101102.75;4321784;33;20108;-87
2023/01/04 05:08:13;;;;;;;19.33;8.85;;;;;;;5.19;59.47;101092.34;4313126;33;20135;-88
2023/01/04 05:10:39;;;;;;;16.83;8.55;;;;;;;5.21;59.46;101106.16;4309092;33;20165;-86
2023/01/04 05:13:06;;;;;;;17.42;8.57;;;;;;;5.37;59.47;101108.88;4319334;33;20123;-88
2023/01/04 05:15:32;;;;;;;18.33;8.80;;;;;;;5.37;59.47;101099.41;4309306;33;20108;-87
2023/01/04 05:17:58;;;;;;;17.90;8.65;;;;;;;5.36;59.47;101104.56;4321273;33;20096;-86
2023/01/04 05:20:23;;;;;;;15.43;7.90;;;;;;;5.32;59.48;101106.25;4320942;33;20111;-88
2023/01/04 05:22:49;;;;;;;16.35;8.70;;;;;;;5.27;59.47;101099.31;4322349;33;20112;-87
2023/01/04 05:25:14;;;;;;;16.52;8.52;;;;;;;5.23;59.46;101108.75;4312719;33;20147;-87
2023/01/04 05:27:40;;;;;;;14.02;7.37;;;;;;;5.28;59.47;101113.97;4321715;33;20099;-87
2023/01/04 05:32:50;;;;;;;17.98;8.25;;;;;;;5.30;59.47;101127.75;4319191;33;20127;-88
2023/01/04 05:35:15;;;;;;;16.17;7.75;;;;;;;5.36;59.47;101120.06;4322214;33;20103;-88
2023/01/04 05:37:41;;;;;;;19.12;8.48;;;;;;;5.24;59.47;101121.66;4319765;33;20095;-87
2023/01/04 05:40:07;;;;;;;16.30;7.85;;;;;;;5.18;59.47;101133.62;4319383;33;20099;-88
2023/01/04 05:42:32;;;;;;;21.83;8.57;;;;;;;5.18;59.47;101131.03;4309071;33;20135;-88
2023/01/04 05:44:58;;;;;;;16.30;8.15;;;;;;;5.23;59.46;101126.81;4320620;33;20164;-87
2023/01/04 05:47:24;;;;;;;19.55;8.52;;;;;;;5.22;59.46;101128.53;4311938;33;20211;-87
2023/01/04 05:49:50;;;;;;;16.67;7.85;;;;;;;5.28;59.47;101129.44;4321517;33;20095;-86
2023/01/04 05:52:16;;;;;;;14.98;8.00;;;;;;;5.05;59.46;101135.19;4318814;33;20131;-87
2023/01/04 05:54:41;;;;;;;17.83;8.48;;;;;;;5.07;59.46;101136.06;4302031;33;20123;-87
2023/01/04 05:57:07;;;;;;;16.75;8.25;;;;;;;5.17;59.47;101134.47;4311712;33;20095;-87
2023/01/04 05:59:32;;;;;;;15.15;8.07;;;;;;;5.27;59.47;101131.16;4321883;33;20478;-88
2023/01/04 06:01:57;;;;;;;17.65;8.68;;;;;;;5.17;59.47;101134.47;4320851;33;20155;-87
2023/01/04 06:04:23;;;;;;;17.35;8.38;;;;;;;5.11;59.46;101130.09;4297836;33;20113;-87
2023/01/04 06:06:48;;;;;;;17.08;8.85;;;;;;;5.12;59.46;101131.84;4304878;33;20095;-88
2023/01/04 06:09:14;;;;;;;17.00;8.65;;;;;;;5.19;59.47;101122.44;4315996;33;20372;-87
2023/01/04 06:11:39;;;;;;;14.35;7.62;;;;;;;5.15;59.46;101131.00;4316665;33;20174;-87
2023/01/04 06:14:05;;;;;;;17.40;8.13;;;;;;;5.13;59.46;101132.69;4320344;33;20096;-86
2023/01/04 06:16:30;;;;;;;15.75;7.07;;;;;;;5.05;59.46;101126.59;4319598;33;20500;-85
2023/01/04 06:18:55;;;;;;;18.45;8.45;;;;;;;4.90;59.45;101133.28;4321281;33;20489;-86
2023/01/04 06:21:21;;;;;;;17.30;8.57;;;;;;;4.85;59.44;101134.94;4304169;33;20116;-86
2023/01/04 06:23:46;;;;;;;15.02;6.90;;;;;;;4.83;59.45;101149.53;4320780;33;20151;-87
2023/01/04 06:26:12;;;;;;;16.42;8.15;;;;;;;4.83;59.45;101159.84;4320460;33;20169;-86
2023/01/04 06:28:37;;;;;;;18.42;8.10;;;;;;;4.76;59.44;101162.31;4320636;33;20139;-86
2023/01/04 06:31:06;;;;;;;17.00;8.35;;;;;;;4.81;59.45;101155.50;4311362;33;20166;-87
2023/01/04 06:33:32;;;;;;;20.77;8.38;;;;;;;4.67;59.44;101157.88;4313865;33;20123;-86
2023/01/04 06:35:57;;;;;;;20.02;8.85;;;;;;;4.75;59.44;101150.28;4315553;33;20087;-86
2023/01/04 06:38:23;;;;;;;17.70;7.75;;;;;;;4.70;59.43;101155.34;4300744;33;20107;-86
2023/01/04 06:40:48;;;;;;;16.55;7.95;;;;;;;4.57;59.43;101156.91;4331809;33;20145;-86
2023/01/04 06:43:14;;;;;;;20.12;8.45;;;;;;;4.56;59.43;101155.16;4319633;33;20103;-85
2023/01/04 06:45:39;;;;;;;18.98;8.60;;;;;;;4.54;59.43;101153.41;4332606;33;20198;-87
2023/01/04 06:48:05;;;;;;;17.90;8.90;;;;;;;4.46;59.42;101158.44;4326478;33;20076;-86
2023/01/04 06:50:30;;;;;;;18.50;8.75;;;;;;;4.69;59.44;101160.47;4319406;33;20160;-86
2023/01/04 06:52:55;;;;;;;18.75;8.02;;;;;;;4.66;59.44;101161.31;4326018;33;20107;-86
2023/01/04 06:55:23;;;;;;;16.62;7.68;;;;;;;4.87;59.45;101156.47;4315581;33;20107;-87
2023/01/04 06:57:49;;;;;;;15.45;7.80;;;;;;;4.79;59.43;101157.22;4315728;33;20160;-87
2023/01/04 07:00:14;;;;;;;18.23;8.43;;;;;;;4.76;59.44;101160.62;4305445;33;20162;-86
2023/01/04 07:02:40;;;;;;;20.10;8.88;;;;;;;4.80;59.45;101161.53;4322829;33;20171;-86
2023/01/04 07:05:05;;;;;;;22.23;8.40;;;;;;;4.98;59.45;101160.91;4324171;33;20130;-85
2023/01/04 07:07:32;;;;;;;18.83;9.10;;;;;;;4.97;59.45;101167.78;4307859;33;20096;-86
2023/01/04 07:09:57;;;;;;;17.40;8.75;;;;;;;4.96;59.45;101165.16;4308441;33;20103;-87
2023/01/04 07:12:22;;;;;;;19.25;8.52;;;;;;;4.98;59.45;101169.53;4320389;33;20752;-86
2023/01/04 07:14:48;;;;;;;19.73;9.23;;;;;;;4.90;59.45;101178.84;4313065;33;20099;-87
2023/01/04 07:17:13;;;;;;;21.30;9.98;;;;;;;4.78;59.44;101179.56;4303151;33;20126;-86
2023/01/04 07:19:39;;;;;;;19.33;9.45;;;;;;;4.76;59.44;101183.84;4327633;33;20131;-85
2023/01/04 07:22:04;;;;;;;20.17;9.65;;;;;;;4.71;59.43;101187.16;4326663;33;20154;-85
2023/01/04 07:24:29;;;;;;;21.02;9.77;;;;;;;4.87;59.45;101186.53;4327797;33;20110;-87
2023/01/04 07:26:55;;;;;;;20.40;9.60;;;;;;;4.78;59.44;101187.28;4319947;33;20095;-86
2023/01/04 07:29:21;;;;;;;25.30;11.02;;;;;;;4.59;59.44;101181.00;4309796;33;20127;-86
2023/01/04 07:31:48;;;;;;;24.12;10.25;;;;;;;4.63;59.43;101177.59;4313501;33;20377;-85
2023/01/04 07:34:14;;;;;;;21.25;11.88;;;;;;;4.71;59.43;101169.09;4305107;33;20857;-87
2023/01/04 07:36:39;;;;;;;23.12;10.10;;;;;;;4.78;59.44;101166.66;4305611;33;20649;-85
2023/01/04 07:39:06;;;;;;;22.75;10.10;;;;;;;5.00;59.45;101169.53;4330712;33;20152;-86
2023/01/04 07:41:32;;;;;;;18.95;9.95;;;;;;;5.12;59.46;101167.97;4313781;33;20104;-87
2023/01/04 07:43:57;;;;;;;21.12;9.93;;;;;;;5.20;59.47;101160.31;4303485;33;20366;-85
2023/01/04 07:46:23;;;;;;;21.30;10.80;;;;;;;5.22;59.46;101161.22;4322586;33;20135;-86
2023/01/04 07:48:48;;;;;;;23.48;10.82;;;;;;;5.24;59.47;101162.97;4330775;33;20092;-86
2023/01/04 07:51:13;;;;;;;26.02;11.05;;;;;;;5.28;59.47;101163.88;4320275;33;20140;-87
2023/01/04 07:53:39;;;;;;;22.27;10.63;;;;;;;5.52;59.48;101165.87;4303677;33;20135;-86
2023/01/04 07:56:05;;;;;;;21.02;10.95;;;;;;;5.56;59.49;101162.47;4312926;33;20366;-86
2023/01/04 07:58:30;;;;;;;19.52;10.48;;;;;;;5.71;59.50;101165.22;4321437;33;20136;-87
2023/01/04 08:00:56;;;;;;;23.23;10.73;;;;;;;5.62;59.49;101165.09;4321465;33;20111;-86
2023/01/04 08:03:22;;;;;;;21.87;10.82;;;;;;;5.55;59.49;101173.66;4321269;33;20095;-85
2023/01/04 08:05:47;;;;;;;25.27;12.13;;;;;;;5.78;59.50;101168.72;4308890;33;20118;-87
2023/01/04 08:08:13;;;;;;;23.85;11.10;;;;;;;5.90;59.52;101168.87;4316088;33;20155;-88
2023/01/04 08:10:38;;;;;;;21.23;10.20;;;;;;;6.02;59.51;101161.25;4310672;33;20461;-87
2023/01/04 08:13:03;;;;;;;20.75;10.98;;;;;;;5.84;59.51;101167.06;4315944;33;20117;-88
2023/01/04 08:15:29;;;;;;;22.70;12.30;;;;;;;5.90;59.51;101166.28;4334086;33;20154;-89
2023/01/04 08:17:55;;;;;;;20.90;11.30;;;;;;;5.85;59.50;101155.00;4321286;33;20112;-85
2023/01/04 08:20:20;;;;;;;27.00;11.93;;;;;;;5.84;59.51;101151.56;4311203;33;20482;-88
2023/01/04 08:22:46;;;;;;;22.25;12.00;;;;;;;5.94;59.51;101144.81;4321420;33;20469;-84
2023/01/04 08:25:11;;;;;;;23.20;12.30;;;;;;;5.95;59.51;101145.69;4308622;33;20167;-87
2023/01/04 08:27:36;;;;;;;24.17;12.35;;;;;;;6.11;59.51;101148.38;4321329;33;20148;-87
2023/01/04 08:30:03;;;;;;;21.70;11.77;;;;;;;6.11;59.51;101137.19;4320861;33;20114;-88
2023/01/04 08:32:28;;;;;;;25.10;13.00;;;;;;;6.30;59.53;101133.91;4321207;33;20153;-86
2023/01/04 08:34:54;;;;;;;24.30;12.00;;;;;;;6.52;59.54;101141.81;4328406;33;20104;-87
2023/01/04 08:37:19;;;;;;;26.00;11.55;;;;;;;6.41;59.53;101141.75;4316652;33;20132;-88
2023/01/04 08:39:45;;;;;;;25.00;13.15;;;;;;;6.58;59.55;101142.72;4321401;33;20149;-86
2023/01/04 08:42:10;;;;;;;24.05;12.70;;;;;;;6.59;59.55;101140.97;4320696;33;20452;-85
2023/01/04 08:44:36;;;;;;;29.63;14.05;;;;;;;6.79;59.55;101141.97;4319961;33;20351;-86
2023/01/04 08:47:01;;;;;;;22.95;12.75;;;;;;;6.76;59.55;101144.56;4321135;33;20111;-86
2023/01/04 08:49:27;;;;;;;26.52;12.95;;;;;;;6.83;59.56;101137.69;4328410;33;20484;-86
2023/01/04 08:51:52;;;;;;;23.15;12.10;;;;;;;6.93;59.57;101137.75;4303843;33;20146;-85
2023/01/04 08:54:18;;;;;;;22.80;11.48;;;;;;;6.93;59.56;101140.34;4315873;33;20366;-86
2023/01/04 08:56:43;;;;;;;23.92;12.23;;;;;;;7.00;59.57;101138.63;4303735;33;20112;-87
2023/01/04 08:59:09;;;;;;;21.98;10.93;;;;;;;7.24;59.58;101136.16;4318613;33;20176;-87
2023/01/04 09:01:34;;;;;;;23.52;12.90;;;;;;;7.42;59.59;101135.34;4313335;33;20100;-87
2023/01/04 09:04:00;;;;;;;25.15;12.32;;;;;;;7.36;59.59;101145.72;4310589;33;20100;-87
2023/01/04 09:06:25;;;;;;;23.55;12.35;;;;;;;7.36;59.59;101148.28;4320263;33;20108;-86
2023/01/04 09:08:51;;;;;;;27.75;13.15;;;;;;;7.46;59.59;101142.28;4320956;33;20913;-87
2023/01/04 09:11:18;;;;;;;20.42;11.12;;;;;;;7.78;59.61;101137.16;4312995;33;20126;-86
2023/01/04 09:13:44;;;;;;;22.92;12.10;;;;;;;7.97;59.62;101135.44;4328913;33;20096;-87
2023/01/04 09:16:11;;;;;;;23.15;11.82;;;;;;;7.88;59.61;101144.09;4317204;33;20139;-87
2023/01/04 09:18:37;;;;;;;22.27;11.63;;;;;;;7.92;59.62;101138.03;4317435;33;20132;-87
2023/01/04 09:21:06;;;;;;;23.02;12.27;;;;;;;7.98;59.62;101140.62;4318106;33;20178;-84
2023/01/04 09:23:35;;;;;;;25.33;11.18;;;;;;;8.13;59.63;101126.81;4320425;33;20171;-85
2023/01/04 09:26:07;;;;;;;24.17;11.32;;;;;;;8.51;59.66;101134.59;4311468;33;20120;-87
2023/01/04 09:28:33;;;;;;;23.58;10.93;;;;;;;8.63;59.66;101122.47;4311109;33;20107;-87
2023/01/04 09:31:03;;;;;;;18.92;10.63;;;;;;;8.67;59.67;101119.00;4309683;33;20118;-85
2023/01/04 09:33:29;;;;;;;21.05;10.30;;;;;;;8.83;59.67;101116.38;4320517;33;20099;-86
2023/01/04 09:35:54;;;;;;;19.37;10.88;;;;;;;8.73;59.66;101116.38;4332177;33;20104;-86
2023/01/04 09:38:20;;;;;;;19.83;10.63;;;;;;;9.09;59.68;101108.47;4319650;33;20157;-86
2023/01/04 09:41:13;;;;;;;20.12;11.73;;;;;;;8.93;59.67;101118.06;4310333;33;20233;-85
2023/01/04 09:43:46;;;;;;;21.45;12.27;;;;;;;8.90;59.68;101112.00;4324439;33;20123;-85
2023/01/04 09:46:20;;;;;;;16.08;9.88;;;;;;;8.87;59.67;101105.09;4320017;33;20131;-88
2023/01/04 09:48:45;;;;;;;17.10;8.75;;;;;;;8.67;59.66;101096.50;4308001;33;20691;-85
2023/01/04 09:51:15;;;;;;;15.10;8.95;;;;;;;8.55;59.65;101099.16;4332315;33;20493;-86
2023/01/04 09:53:43;;;;;;;15.95;9.07;;;;;;;8.55;59.65;101096.56;4319191;33;20106;-86
2023/01/04 09:56:17;;;;;;;13.77;8.45;;;;;;;8.74;59.66;101086.94;4317019;33;20111;-86
2023/01/04 09:58:44;;;;;;;18.37;10.02;;;;;;;8.59;59.66;101091.34;4320418;33;20095;-86
2023/01/04 10:01:13;;;;;;;15.38;8.65;;;;;;;8.55;59.65;101096.56;4317167;33;20106;-87
2023/01/04 10:03:40;;;;;;;14.77;8.80;;;;;;;8.72;59.66;101092.16;4319285;33;20126;-84
2023/01/04 10:06:09;;;;;;;12.50;8.18;;;;;;;8.91;59.68;101091.22;4322885;33;20115;-84
2023/01/04 10:08:34;;;;;;;16.55;8.88;;;;;;;8.77;59.67;101087.84;4320202;33;20125;-87
2023/01/04 10:11:32;;;;;;;16.73;8.90;;;;;;;8.67;59.66;101080.94;4321497;33;20179;-86
2023/01/04 10:14:22;;;;;;;15.52;8.57;;;;;;;8.82;59.67;101083.50;4333948;33;20080;-87
2023/01/04 10:16:53;;;;;;;15.35;9.23;;;;;;;8.84;59.67;101068.75;4317441;33;20138;-87
2023/01/04 10:19:56;;;;;;;16.15;8.63;;;;;;;8.82;59.67;101070.50;4327468;33;20091;-87
2023/01/04 10:22:27;;;;;;;18.67;8.98;;;;;;;8.81;59.66;101076.56;4325880;33;20162;-87
2023/01/04 10:25:30;;;;;;;18.98;8.77;;;;;;;8.81;59.66;101065.31;4320918;33;20095;-87
2023/01/04 10:28:12;;;;;;;16.90;8.88;;;;;;;8.93;59.67;101071.31;4276363;33;20143;-87
2023/01/04 10:30:48;;;;;;;16.58;8.65;;;;;;;8.72;59.66;101065.34;4294241;33;20420;-86
2023/01/04 10:33:27;;;;;;;13.40;8.65;;;;;;;8.65;59.66;101074.00;4325282;33;20088;-86
2023/01/04 10:35:53;;;;;;;16.70;8.48;;;;;;;8.69;59.66;101076.59;4302101;33;20736;-87
2023/01/04 10:38:27;;;;;;;13.65;7.97;;;;;;;8.65;59.66;101071.41;4316289;33;20108;-86
2023/01/04 10:40:53;;;;;;;14.32;8.20;;;;;;;8.40;59.64;101068.03;4316039;33;20143;-88
2023/01/04 10:43:21;;;;;;;15.68;8.60;;;;;;;8.44;59.64;101067.16;4316327;33;20107;-87
2023/01/04 10:45:59;;;;;;;16.23;8.85;;;;;;;8.43;59.64;101060.22;4316730;33;20134;-87
2023/01/04 10:48:46;;;;;;;13.68;8.02;;;;;;;8.47;59.65;101051.56;4324380;33;20112;-86
2023/01/04 10:51:11;;;;;;;15.63;8.18;;;;;;;8.53;59.65;101052.44;4331076;33;20112;-88
2023/01/04 10:53:49;;;;;;;17.17;9.80;;;;;;;8.69;59.66;101049.78;4318504;33;20114;-87
2023/01/04 10:56:22;;;;;;;18.10;9.57;;;;;;;8.70;59.66;101046.31;4294784;33;20088;-86
2023/01/04 10:59:36;;;;;;;19.17;9.68;;;;;;;8.79;59.66;101044.56;4310283;33;20076;-88
2023/01/04 11:02:09;;;;;;;16.52;9.15;;;;;;;8.87;59.67;101027.19;4313307;33;20143;-87
2023/01/04 11:04:39;;;;;;;13.68;7.78;;;;;;;9.12;59.69;101024.47;4295131;33;20147;-88
2023/01/04 11:07:40;;;;;;;16.05;9.10;;;;;;;9.33;59.69;101016.56;4329939;33;20175;-88
2023/01/04 11:10:37;;;;;;;16.60;8.40;;;;;;;9.53;59.71;101013.81;4294412;33;20457;-88
2023/01/04 11:13:02;;;;;;;15.35;8.60;;;;;;;9.52;59.71;101005.16;4305907;33;20116;-88
2023/01/04 11:15:28;;;;;;;16.75;9.70;;;;;;;9.57;59.70;100999.06;4318642;33;20179;-88
2023/01/04 11:17:53;;;;;;;17.25;10.32;;;;;;;9.70;59.71;100998.97;4294446;33;20163;-87
2023/01/04 11:20:19;;;;;;;17.62;8.75;;;;;;;9.94;59.73;100984.88;4318163;33;20114;-86
2023/01/04 11:22:51;;;;;;;14.48;8.27;;;;;;;9.94;59.72;100984.00;4311925;33;20124;-87
2023/01/04 11:25:18;;;;;;;16.73;8.27;;;;;;;9.73;59.72;100978.12;4318497;33;20809;-88
2023/01/04 11:28:01;;;;;;;15.80;8.05;;;;;;;9.83;59.72;100971.09;4293778;33;20091;-86
2023/01/04 11:30:34;;;;;;;16.45;8.93;;;;;;;10.08;59.73;100964.75;4313163;33;20139;-84
2023/01/04 11:33:25;;;;;;;13.27;6.65;;;;;;;10.12;59.74;100961.25;4317806;33;20104;-87
2023/01/04 11:35:57;;;;;;;13.23;7.12;;;;;;;10.40;59.76;100950.53;4320402;33;20155;-88
2023/01/04 11:38:27;;;;;;;10.82;6.68;;;;;;;10.46;59.75;100950.50;4313049;33;20111;-87
2023/01/04 11:40:57;;;;;;;12.70;6.70;;;;;;;10.58;59.77;100949.47;4311524;33;20539;-88
2023/01/04 11:43:23;;;;;;;14.48;7.55;;;;;;;10.74;59.77;100941.44;4294529;33;20470;-87
2023/01/04 11:45:59;;;;;;;10.00;5.93;;;;;;;10.62;59.76;100952.00;4308353;33;20088;-88
2023/01/04 11:48:41;;;;;;;11.07;6.22;;;;;;;10.95;59.78;100942.03;4330389;33;20095;-88
2023/01/04 11:51:27;;;;;;;9.68;5.12;;;;;;;11.08;59.80;100935.72;4315562;33;20462;-88
2023/01/04 11:54:14;;;;;;;10.27;4.82;;;;;;;11.19;59.80;100938.19;4326136;33;20147;-88
2023/01/04 11:57:18;;;;;;;9.95;5.85;;;;;;;11.21;59.80;100937.28;4306172;33;20438;-88
2023/01/04 11:59:44;;;;;;;6.47;3.30;;;;;;;11.16;59.80;100931.28;4275879;33;20165;-88
2023/01/04 12:02:15;;;;;;;9.35;4.65;;;;;;;11.53;59.82;100926.31;4290276;33;20166;-87
2023/01/04 12:04:41;;;;;;;10.70;4.95;;;;;;;11.46;59.81;100922.09;4305245;33;20115;-85
2023/01/04 12:07:16;;;;;;;8.48;4.35;;;;;;;11.61;59.82;100913.16;4305487;33;20088;-88
2023/01/04 12:09:41;;;;;;;8.32;4.55;;;;;;;11.56;59.81;100914.97;4329060;33;20092;-86
2023/01/04 12:12:09;;;;;;;8.68;4.05;;;;;;;11.96;59.84;100916.00;4293689;33;20163;-87
2023/01/04 12:14:35;;;;;;;6.43;3.35;;;;;;;12.14;59.85;100917.41;4317591;33;20145;-87
2023/01/04 12:17:12;;;;;;;6.80;3.35;;;;;;;12.23;59.85;100911.13;4327023;33;20448;-87